Terminal Aerodrome Forecast
Issued by NWS Grand Junction, CO

Home | Current Version | Previous Version | Text Only | Print | Product List | Glossary On
Versions: 1 2 3 4 5 6 7 8 9 10 11 12 13 14 15
000
FTUS45 KGJT 261120
TAFGJT
TAF
KGJT 261120Z 2612/2712 00000KT P6SM FEW200
     FM262300 32004KT P6SM FEW140 SCT200
     FM270300 03005KT P6SM FEW140 SCT200
     FM270900 08004KT P6SM BKN110=

USA.gov is the U.S. government's official web portal to all federal, state and local government web resources and services.